Terminal Aerodrome Forecast
Issued by NWS Twin Cities, MN

Home | Current Version | Previous Version | Graphics & Text | Print | Product List | Glossary On
Versions: 1 2 3 4 5 6 7 8 9 10 11 12 13 14 15 16 17
000
FTUS43 KMPX 030806 AAA
TAFEAU
TAF AMD
KEAU 030806Z 0308/0406 VRB03KT 2SM BR SKC
      TEMPO 0310/0313 1/2SM FG VV002
     FM031400 25008KT P6SM FEW250
     FM040100 VRB03KT P6SM BKN070=

USA.gov is the U.S. government's official web portal to all federal, state and local government web resources and services.